ROMMA est une association bénévole à but non lucratif. Votre soutien est indispensable : ADHERER à ROMMA ou FAIRE un DON

Saint-Vallier-de-Thiey - (06, Alpes-Maritimes)

Côte-d'Azur (723 m)   Longitude: 06° 50' 21" E   Latitude: 43° 42' 8" N Station partenaire n°150
 

Détail journalier du     <<     >>

Température Precipitation Humidité Pression Vent Dir Rafale Dir. rafale
Heure (°C) (mm) (%) (hPa) (km/h) (km/h)
01:00 11.508810242N6NNO
02:00 13.407910245NNO16NNO
03:00 12.908110235N16NNO
04:00 13.107710233N10NNO
05:00 14.406510234N18NNO
06:00 13.006810234NNO16NNO
07:00 12.507110241NO5NO
08:00 11.507110242NNO6NNO
09:00 15.206610243N10N
10:00 17.905910251ESE5ENE
11:00 20.205410251SE5SE
12:00 20.905110252SSE6SSO
13:00 21.405510244SSE16SSE
14:00 20.805710245SE15SE
15:00 21.205210244S13SSO
16:00 21.205310243SE8S
17:00 20.505910243S10SSO
18:00 19.006510241SSO5SSO
19:00 15.307010242SSO8N
20:00 14.807010242NNE8NNE
21:00 15.006710253NNE8NNE
22:00 13.007710251N5N
23:00 12.507910251N10N
minuit 12.407910251N8N

Graphique du 26-10-2019

 

Serveur OMMA